sensor_id;sensor_type;location;lat;lon;timestamp;P1;durP1;ratioP1;P2;durP2;ratioP2
46318;SDS011;32042;50.916;2.926;2024-02-26T00:01:41;1.23;;;1.13;;
46318;SDS011;32042;50.916;2.926;2024-02-26T00:04:08;1.17;;;1.00;;
46318;SDS011;32042;50.916;2.926;2024-02-26T00:06:35;2.13;;;1.07;;
46318;SDS011;32042;50.916;2.926;2024-02-26T00:09:02;3.43;;;1.40;;
46318;SDS011;32042;50.916;2.926;2024-02-26T00:11:31;4.63;;;0.90;;
46318;SDS011;32042;50.916;2.926;2024-02-26T00:13:57;3.60;;;1.17;;
46318;SDS011;32042;50.916;2.926;2024-02-26T00:16:23;2.70;;;1.37;;
46318;SDS011;32042;50.916;2.926;2024-02-26T00:18:49;1.73;;;1.60;;
46318;SDS011;32042;50.916;2.926;2024-02-26T00:21:15;2.67;;;1.10;;
46318;SDS011;32042;50.916;2.926;2024-02-26T00:23:42;2.47;;;1.20;;
46318;SDS011;32042;50.916;2.926;2024-02-26T00:26:08;2.37;;;1.13;;
46318;SDS011;32042;50.916;2.926;2024-02-26T00:28:35;1.67;;;1.03;;
46318;SDS011;32042;50.916;2.926;2024-02-26T00:31:02;2.47;;;1.27;;
46318;SDS011;32042;50.916;2.926;2024-02-26T00:33:28;3.13;;;1.23;;
46318;SDS011;32042;50.916;2.926;2024-02-26T00:35:54;2.07;;;1.17;;
46318;SDS011;32042;50.916;2.926;2024-02-26T00:38:20;3.40;;;1.60;;
46318;SDS011;32042;50.916;2.926;2024-02-26T00:40:46;2.10;;;1.10;;
46318;SDS011;32042;50.916;2.926;2024-02-26T00:43:12;1.70;;;0.97;;
46318;SDS011;32042;50.916;2.926;2024-02-26T00:45:38;1.20;;;1.10;;
46318;SDS011;32042;50.916;2.926;2024-02-26T00:48:04;1.43;;;1.20;;
46318;SDS011;32042;50.916;2.926;2024-02-26T00:50:33;1.87;;;1.10;;
46318;SDS011;32042;50.916;2.926;2024-02-26T00:53:00;2.33;;;1.00;;
46318;SDS011;32042;50.916;2.926;2024-02-26T00:55:26;1.97;;;1.00;;
46318;SDS011;32042;50.916;2.926;2024-02-26T00:57:52;2.37;;;1.30;;
46318;SDS011;32042;50.916;2.926;2024-02-26T01:00:18;1.93;;;1.30;;
46318;SDS011;32042;50.916;2.926;2024-02-26T01:02:44;1.47;;;1.27;;
46318;SDS011;32042;50.916;2.926;2024-02-26T01:05:14;1.90;;;1.30;;
46318;SDS011;32042;50.916;2.926;2024-02-26T01:07:41;4.67;;;1.63;;
46318;SDS011;32042;50.916;2.926;2024-02-26T01:10:07;1.53;;;1.43;;
46318;SDS011;32042;50.916;2.926;2024-02-26T01:12:33;2.23;;;1.27;;
46318;SDS011;32042;50.916;2.926;2024-02-26T01:15:00;2.23;;;1.80;;
46318;SDS011;32042;50.916;2.926;2024-02-26T01:17:26;2.17;;;1.60;;
46318;SDS011;32042;50.916;2.926;2024-02-26T01:19:52;1.70;;;1.30;;
46318;SDS011;32042;50.916;2.926;2024-02-26T01:22:19;2.07;;;1.33;;
46318;SDS011;32042;50.916;2.926;2024-02-26T01:24:45;1.40;;;1.20;;
46318;SDS011;32042;50.916;2.926;2024-02-26T01:27:11;2.00;;;1.40;;
46318;SDS011;32042;50.916;2.926;2024-02-26T01:29:39;1.73;;;1.37;;
46318;SDS011;32042;50.916;2.926;2024-02-26T01:32:05;1.80;;;1.10;;
46318;SDS011;32042;50.916;2.926;2024-02-26T01:34:31;2.57;;;1.17;;
46318;SDS011;32042;50.916;2.926;2024-02-26T01:36:57;1.20;;;1.10;;
46318;SDS011;32042;50.916;2.926;2024-02-26T01:39:23;1.77;;;1.10;;
46318;SDS011;32042;50.916;2.926;2024-02-26T01:41:49;1.17;;;1.10;;
46318;SDS011;32042;50.916;2.926;2024-02-26T01:44:15;1.50;;;1.20;;
46318;SDS011;32042;50.916;2.926;2024-02-26T01:46:41;2.47;;;1.30;;
46318;SDS011;32042;50.916;2.926;2024-02-26T01:49:11;1.33;;;1.23;;
46318;SDS011;32042;50.916;2.926;2024-02-26T01:51:38;2.03;;;0.90;;
46318;SDS011;32042;50.916;2.926;2024-02-26T01:54:05;1.23;;;0.90;;
46318;SDS011;32042;50.916;2.926;2024-02-26T01:56:33;2.30;;;1.10;;
46318;SDS011;32042;50.916;2.926;2024-02-26T01:58:59;1.43;;;1.20;;
46318;SDS011;32042;50.916;2.926;2024-02-26T02:01:25;2.40;;;1.00;;
46318;SDS011;32042;50.916;2.926;2024-02-26T02:03:53;2.20;;;1.80;;
46318;SDS011;32042;50.916;2.926;2024-02-26T02:06:20;2.53;;;1.40;;
46318;SDS011;32042;50.916;2.926;2024-02-26T02:08:46;1.70;;;1.20;;
46318;SDS011;32042;50.916;2.926;2024-02-26T02:11:13;2.50;;;1.40;;
46318;SDS011;32042;50.916;2.926;2024-02-26T02:13:40;3.13;;;1.30;;
46318;SDS011;32042;50.916;2.926;2024-02-26T02:16:06;2.00;;;1.20;;
46318;SDS011;32042;50.916;2.926;2024-02-26T02:18:32;1.67;;;1.47;;
46318;SDS011;32042;50.916;2.926;2024-02-26T02:21:02;1.60;;;1.00;;
46318;SDS011;32042;50.916;2.926;2024-02-26T02:23:28;3.00;;;1.47;;
46318;SDS011;32042;50.916;2.926;2024-02-26T02:25:54;3.70;;;1.23;;
46318;SDS011;32042;50.916;2.926;2024-02-26T02:28:21;0.93;;;0.90;;
46318;SDS011;32042;50.916;2.926;2024-02-26T02:30:48;2.37;;;0.90;;
46318;SDS011;32042;50.916;2.926;2024-02-26T02:33:14;1.13;;;0.83;;
46318;SDS011;32042;50.916;2.926;2024-02-26T02:35:41;1.00;;;1.00;;
46318;SDS011;32042;50.916;2.926;2024-02-26T02:38:07;1.17;;;1.07;;
46318;SDS011;32042;50.916;2.926;2024-02-26T02:40:33;1.37;;;1.27;;
46318;SDS011;32042;50.916;2.926;2024-02-26T02:42:59;1.00;;;1.00;;
46318;SDS011;32042;50.916;2.926;2024-02-26T02:45:27;1.00;;;1.00;;
46318;SDS011;32042;50.916;2.926;2024-02-26T02:47:53;3.27;;;1.20;;
46318;SDS011;32042;50.916;2.926;2024-02-26T02:50:19;1.23;;;1.13;;
46318;SDS011;32042;50.916;2.926;2024-02-26T02:52:45;1.17;;;1.07;;
46318;SDS011;32042;50.916;2.926;2024-02-26T02:55:12;1.60;;;1.20;;
46318;SDS011;32042;50.916;2.926;2024-02-26T02:57:38;3.90;;;1.20;;
46318;SDS011;32042;50.916;2.926;2024-02-26T03:00:09;1.57;;;1.30;;
46318;SDS011;32042;50.916;2.926;2024-02-26T03:02:35;2.10;;;1.77;;
46318;SDS011;32042;50.916;2.926;2024-02-26T03:05:01;3.17;;;2.00;;
46318;SDS011;32042;50.916;2.926;2024-02-26T03:07:27;1.53;;;1.40;;
46318;SDS011;32042;50.916;2.926;2024-02-26T03:09:54;2.60;;;1.83;;
46318;SDS011;32042;50.916;2.926;2024-02-26T03:12:20;1.77;;;1.63;;
46318;SDS011;32042;50.916;2.926;2024-02-26T03:14:46;1.77;;;1.67;;
46318;SDS011;32042;50.916;2.926;2024-02-26T03:17:12;1.70;;;1.60;;
46318;SDS011;32042;50.916;2.926;2024-02-26T03:19:38;1.33;;;1.23;;
46318;SDS011;32042;50.916;2.926;2024-02-26T03:22:04;1.63;;;1.53;;
46318;SDS011;32042;50.916;2.926;2024-02-26T03:24:30;1.50;;;1.40;;
46318;SDS011;32042;50.916;2.926;2024-02-26T03:26:56;1.77;;;1.60;;
46318;SDS011;32042;50.916;2.926;2024-02-26T03:29:22;1.60;;;1.50;;
46318;SDS011;32042;50.916;2.926;2024-02-26T03:31:48;2.03;;;1.70;;
46318;SDS011;32042;50.916;2.926;2024-02-26T03:34:14;2.90;;;1.90;;
46318;SDS011;32042;50.916;2.926;2024-02-26T03:36:41;1.70;;;1.60;;
46318;SDS011;32042;50.916;2.926;2024-02-26T03:39:07;1.70;;;1.60;;
46318;SDS011;32042;50.916;2.926;2024-02-26T03:41:33;2.33;;;1.77;;
46318;SDS011;32042;50.916;2.926;2024-02-26T03:44:00;2.30;;;1.90;;
46318;SDS011;32042;50.916;2.926;2024-02-26T03:46:26;3.17;;;2.20;;
46318;SDS011;32042;50.916;2.926;2024-02-26T03:48:52;2.00;;;1.80;;
46318;SDS011;32042;50.916;2.926;2024-02-26T03:51:18;1.87;;;1.70;;
46318;SDS011;32042;50.916;2.926;2024-02-26T03:53:44;2.20;;;2.00;;
46318;SDS011;32042;50.916;2.926;2024-02-26T03:56:13;2.27;;;2.07;;
46318;SDS011;32042;50.916;2.926;2024-02-26T03:58:39;2.80;;;2.60;;
46318;SDS011;32042;50.916;2.926;2024-02-26T04:01:08;3.37;;;3.17;;
46318;SDS011;32042;50.916;2.926;2024-02-26T04:03:35;3.53;;;3.23;;
46318;SDS011;32042;50.916;2.926;2024-02-26T04:06:02;4.30;;;3.23;;
46318;SDS011;32042;50.916;2.926;2024-02-26T04:08:28;4.57;;;4.17;;
46318;SDS011;32042;50.916;2.926;2024-02-26T04:10:54;4.57;;;4.17;;
46318;SDS011;32042;50.916;2.926;2024-02-26T04:13:20;4.17;;;3.77;;
46318;SDS011;32042;50.916;2.926;2024-02-26T04:15:46;4.63;;;4.33;;
46318;SDS011;32042;50.916;2.926;2024-02-26T04:18:13;4.13;;;3.77;;
46318;SDS011;32042;50.916;2.926;2024-02-26T04:20:39;5.53;;;5.00;;
46318;SDS011;32042;50.916;2.926;2024-02-26T04:23:07;6.50;;;5.17;;
46318;SDS011;32042;50.916;2.926;2024-02-26T04:25:33;5.60;;;5.10;;
46318;SDS011;32042;50.916;2.926;2024-02-26T04:27:59;5.27;;;4.80;;
46318;SDS011;32042;50.916;2.926;2024-02-26T04:30:25;7.90;;;5.27;;
46318;SDS011;32042;50.916;2.926;2024-02-26T04:32:51;4.93;;;4.50;;
46318;SDS011;32042;50.916;2.926;2024-02-26T04:35:17;5.47;;;4.97;;
46318;SDS011;32042;50.916;2.926;2024-02-26T04:37:43;5.37;;;4.97;;
46318;SDS011;32042;50.916;2.926;2024-02-26T04:40:10;5.13;;;4.73;;
46318;SDS011;32042;50.916;2.926;2024-02-26T04:42:36;5.50;;;5.00;;
46318;SDS011;32042;50.916;2.926;2024-02-26T04:45:02;5.67;;;5.00;;
46318;SDS011;32042;50.916;2.926;2024-02-26T04:47:28;6.37;;;5.77;;
46318;SDS011;32042;50.916;2.926;2024-02-26T04:49:55;6.77;;;6.17;;
46318;SDS011;32042;50.916;2.926;2024-02-26T04:52:21;6.00;;;5.50;;
46318;SDS011;32042;50.916;2.926;2024-02-26T04:54:47;5.77;;;5.10;;
46318;SDS011;32042;50.916;2.926;2024-02-26T04:57:13;6.03;;;5.53;;
46318;SDS011;32042;50.916;2.926;2024-02-26T04:59:39;5.17;;;4.67;;
46318;SDS011;32042;50.916;2.926;2024-02-26T05:02:07;5.40;;;5.00;;
46318;SDS011;32042;50.916;2.926;2024-02-26T05:04:34;5.87;;;5.37;;
46318;SDS011;32042;50.916;2.926;2024-02-26T05:07:00;5.40;;;4.90;;
46318;SDS011;32042;50.916;2.926;2024-02-26T05:09:26;5.37;;;4.97;;
46318;SDS011;32042;50.916;2.926;2024-02-26T05:11:52;5.13;;;4.63;;
46318;SDS011;32042;50.916;2.926;2024-02-26T05:14:19;3.67;;;3.37;;
46318;SDS011;32042;50.916;2.926;2024-02-26T05:16:45;4.53;;;4.17;;
46318;SDS011;32042;50.916;2.926;2024-02-26T05:19:11;4.50;;;3.73;;
46318;SDS011;32042;50.916;2.926;2024-02-26T05:21:37;4.83;;;4.43;;
46318;SDS011;32042;50.916;2.926;2024-02-26T05:24:03;4.63;;;4.17;;
46318;SDS011;32042;50.916;2.926;2024-02-26T05:26:29;4.67;;;4.27;;
46318;SDS011;32042;50.916;2.926;2024-02-26T05:28:55;4.40;;;4.00;;
46318;SDS011;32042;50.916;2.926;2024-02-26T05:31:24;4.20;;;3.90;;
46318;SDS011;32042;50.916;2.926;2024-02-26T05:33:51;4.80;;;4.40;;
46318;SDS011;32042;50.916;2.926;2024-02-26T05:36:23;6.33;;;4.20;;
46318;SDS011;32042;50.916;2.926;2024-02-26T05:38:50;4.40;;;4.00;;
46318;SDS011;32042;50.916;2.926;2024-02-26T05:41:16;4.40;;;4.00;;
46318;SDS011;32042;50.916;2.926;2024-02-26T05:43:48;4.20;;;3.80;;
46318;SDS011;32042;50.916;2.926;2024-02-26T05:46:16;3.90;;;3.60;;
46318;SDS011;32042;50.916;2.926;2024-02-26T05:48:42;4.20;;;3.80;;
46318;SDS011;32042;50.916;2.926;2024-02-26T05:51:09;4.30;;;3.90;;
46318;SDS011;32042;50.916;2.926;2024-02-26T05:53:35;3.53;;;3.20;;
46318;SDS011;32042;50.916;2.926;2024-02-26T05:56:01;3.83;;;3.53;;
46318;SDS011;32042;50.916;2.926;2024-02-26T05:58:27;4.07;;;3.30;;
46318;SDS011;32042;50.916;2.926;2024-02-26T06:00:53;4.40;;;4.10;;
46318;SDS011;32042;50.916;2.926;2024-02-26T06:03:19;3.80;;;3.30;;
46318;SDS011;32042;50.916;2.926;2024-02-26T06:05:46;3.13;;;2.93;;
46318;SDS011;32042;50.916;2.926;2024-02-26T06:08:12;3.70;;;3.40;;
46318;SDS011;32042;50.916;2.926;2024-02-26T06:10:39;4.60;;;3.03;;
46318;SDS011;32042;50.916;2.926;2024-02-26T06:13:05;4.37;;;3.07;;
46318;SDS011;32042;50.916;2.926;2024-02-26T06:15:31;3.43;;;3.13;;
46318;SDS011;32042;50.916;2.926;2024-02-26T06:17:57;3.00;;;2.80;;
46318;SDS011;32042;50.916;2.926;2024-02-26T06:20:23;3.43;;;3.13;;
46318;SDS011;32042;50.916;2.926;2024-02-26T06:22:49;3.37;;;3.07;;
46318;SDS011;32042;50.916;2.926;2024-02-26T06:25:15;4.03;;;3.20;;
46318;SDS011;32042;50.916;2.926;2024-02-26T06:27:41;3.20;;;3.00;;
46318;SDS011;32042;50.916;2.926;2024-02-26T06:30:07;3.33;;;3.03;;
46318;SDS011;32042;50.916;2.926;2024-02-26T06:32:36;3.97;;;3.57;;
46318;SDS011;32042;50.916;2.926;2024-02-26T06:35:02;4.43;;;3.90;;
46318;SDS011;32042;50.916;2.926;2024-02-26T06:37:32;5.17;;;3.90;;
46318;SDS011;32042;50.916;2.926;2024-02-26T06:39:58;4.33;;;3.93;;
46318;SDS011;32042;50.916;2.926;2024-02-26T06:42:24;4.87;;;4.47;;
46318;SDS011;32042;50.916;2.926;2024-02-26T06:44:51;4.17;;;3.87;;
46318;SDS011;32042;50.916;2.926;2024-02-26T06:47:17;4.90;;;4.50;;
46318;SDS011;32042;50.916;2.926;2024-02-26T06:49:44;4.97;;;4.47;;
46318;SDS011;32042;50.916;2.926;2024-02-26T06:52:10;5.93;;;4.73;;
46318;SDS011;32042;50.916;2.926;2024-02-26T06:54:36;4.47;;;3.47;;
46318;SDS011;32042;50.916;2.926;2024-02-26T06:57:02;5.37;;;4.90;;
46318;SDS011;32042;50.916;2.926;2024-02-26T06:59:29;5.37;;;4.87;;
46318;SDS011;32042;50.916;2.926;2024-02-26T07:01:55;5.03;;;4.63;;
46318;SDS011;32042;50.916;2.926;2024-02-26T07:04:21;5.73;;;5.23;;
46318;SDS011;32042;50.916;2.926;2024-02-26T07:06:47;5.37;;;4.87;;
46318;SDS011;32042;50.916;2.926;2024-02-26T07:09:15;5.43;;;4.93;;
46318;SDS011;32042;50.916;2.926;2024-02-26T07:11:41;5.13;;;4.73;;
46318;SDS011;32042;50.916;2.926;2024-02-26T07:14:10;5.87;;;4.43;;
46318;SDS011;32042;50.916;2.926;2024-02-26T07:16:36;6.03;;;5.43;;
46318;SDS011;32042;50.916;2.926;2024-02-26T07:19:02;6.73;;;5.10;;
46318;SDS011;32042;50.916;2.926;2024-02-26T07:21:28;5.23;;;4.00;;
46318;SDS011;32042;50.916;2.926;2024-02-26T07:23:55;4.77;;;4.30;;
46318;SDS011;32042;50.916;2.926;2024-02-26T07:26:21;3.77;;;3.37;;
46318;SDS011;32042;50.916;2.926;2024-02-26T07:28:49;4.30;;;3.80;;
46318;SDS011;32042;50.916;2.926;2024-02-26T07:31:15;4.07;;;3.43;;
46318;SDS011;32042;50.916;2.926;2024-02-26T07:33:43;3.80;;;3.50;;
46318;SDS011;32042;50.916;2.926;2024-02-26T07:36:09;3.60;;;3.30;;
46318;SDS011;32042;50.916;2.926;2024-02-26T07:38:35;3.97;;;3.67;;
46318;SDS011;32042;50.916;2.926;2024-02-26T07:41:01;4.93;;;3.93;;
46318;SDS011;32042;50.916;2.926;2024-02-26T07:43:27;4.90;;;3.70;;
46318;SDS011;32042;50.916;2.926;2024-02-26T07:45:54;3.83;;;3.43;;
46318;SDS011;32042;50.916;2.926;2024-02-26T07:48:20;4.67;;;3.37;;
46318;SDS011;32042;50.916;2.926;2024-02-26T07:50:46;3.77;;;3.40;;
46318;SDS011;32042;50.916;2.926;2024-02-26T07:53:13;3.67;;;3.30;;
46318;SDS011;32042;50.916;2.926;2024-02-26T07:55:39;3.27;;;2.97;;
46318;SDS011;32042;50.916;2.926;2024-02-26T07:58:05;3.40;;;3.10;;
46318;SDS011;32042;50.916;2.926;2024-02-26T08:00:31;4.30;;;3.00;;
46318;SDS011;32042;50.916;2.926;2024-02-26T08:02:57;3.50;;;3.20;;
46318;SDS011;32042;50.916;2.926;2024-02-26T08:05:23;4.73;;;2.87;;
46318;SDS011;32042;50.916;2.926;2024-02-26T08:07:50;4.07;;;3.10;;
46318;SDS011;32042;50.916;2.926;2024-02-26T08:10:16;3.60;;;2.50;;
46318;SDS011;32042;50.916;2.926;2024-02-26T08:12:42;2.70;;;2.50;;
46318;SDS011;32042;50.916;2.926;2024-02-26T08:15:10;3.30;;;2.43;;
46318;SDS011;32042;50.916;2.926;2024-02-26T08:17:36;2.67;;;2.47;;
46318;SDS011;32042;50.916;2.926;2024-02-26T08:20:03;4.10;;;2.60;;
46318;SDS011;32042;50.916;2.926;2024-02-26T08:22:29;2.90;;;2.50;;
46318;SDS011;32042;50.916;2.926;2024-02-26T08:24:55;2.80;;;2.60;;
46318;SDS011;32042;50.916;2.926;2024-02-26T08:27:21;2.87;;;2.10;;
46318;SDS011;32042;50.916;2.926;2024-02-26T08:29:47;4.13;;;2.10;;
46318;SDS011;32042;50.916;2.926;2024-02-26T08:32:13;2.30;;;2.10;;
46318;SDS011;32042;50.916;2.926;2024-02-26T08:34:39;2.50;;;2.30;;
46318;SDS011;32042;50.916;2.926;2024-02-26T08:37:05;3.27;;;2.60;;
46318;SDS011;32042;50.916;2.926;2024-02-26T08:39:32;2.60;;;2.33;;
46318;SDS011;32042;50.916;2.926;2024-02-26T08:41:58;6.30;;;2.13;;
46318;SDS011;32042;50.916;2.926;2024-02-26T08:44:24;2.70;;;1.97;;
46318;SDS011;32042;50.916;2.926;2024-02-26T08:46:51;2.03;;;1.83;;
46318;SDS011;32042;50.916;2.926;2024-02-26T08:49:17;2.23;;;2.03;;
46318;SDS011;32042;50.916;2.926;2024-02-26T08:51:43;3.87;;;2.00;;
46318;SDS011;32042;50.916;2.926;2024-02-26T08:54:10;2.20;;;1.77;;
46318;SDS011;32042;50.916;2.926;2024-02-26T08:56:36;5.63;;;2.30;;
46318;SDS011;32042;50.916;2.926;2024-02-26T08:59:02;3.00;;;1.73;;
46318;SDS011;32042;50.916;2.926;2024-02-26T09:01:32;3.00;;;2.70;;
46318;SDS011;32042;50.916;2.926;2024-02-26T09:03:58;4.87;;;2.60;;
46318;SDS011;32042;50.916;2.926;2024-02-26T09:06:24;2.80;;;2.50;;
46318;SDS011;32042;50.916;2.926;2024-02-26T09:08:51;2.90;;;2.20;;
46318;SDS011;32042;50.916;2.926;2024-02-26T09:11:17;1.70;;;1.60;;
46318;SDS011;32042;50.916;2.926;2024-02-26T09:13:43;2.37;;;2.17;;
46318;SDS011;32042;50.916;2.926;2024-02-26T09:16:09;5.37;;;2.40;;
46318;SDS011;32042;50.916;2.926;2024-02-26T09:18:38;2.60;;;2.40;;
46318;SDS011;32042;50.916;2.926;2024-02-26T09:21:04;3.97;;;2.70;;
46318;SDS011;32042;50.916;2.926;2024-02-26T09:23:31;6.03;;;2.00;;
46318;SDS011;32042;50.916;2.926;2024-02-26T09:25:57;6.10;;;2.77;;
46318;SDS011;32042;50.916;2.926;2024-02-26T09:28:24;2.57;;;2.33;;
46318;SDS011;32042;50.916;2.926;2024-02-26T09:30:50;2.57;;;2.37;;
46318;SDS011;32042;50.916;2.926;2024-02-26T09:33:16;3.73;;;3.10;;
46318;SDS011;32042;50.916;2.926;2024-02-26T09:35:42;2.80;;;2.60;;
46318;SDS011;32042;50.916;2.926;2024-02-26T09:38:08;4.53;;;3.10;;
46318;SDS011;32042;50.916;2.926;2024-02-26T09:40:34;4.20;;;3.60;;
46318;SDS011;32042;50.916;2.926;2024-02-26T09:43:00;3.60;;;3.30;;
46318;SDS011;32042;50.916;2.926;2024-02-26T09:45:27;2.90;;;2.53;;
46318;SDS011;32042;50.916;2.926;2024-02-26T09:47:55;5.13;;;3.20;;
46318;SDS011;32042;50.916;2.926;2024-02-26T09:50:21;3.73;;;2.90;;
46318;SDS011;32042;50.916;2.926;2024-02-26T09:52:47;4.07;;;3.43;;
46318;SDS011;32042;50.916;2.926;2024-02-26T09:55:14;4.77;;;3.53;;
46318;SDS011;32042;50.916;2.926;2024-02-26T09:57:42;4.17;;;3.50;;
46318;SDS011;32042;50.916;2.926;2024-02-26T10:00:10;3.60;;;3.23;;
46318;SDS011;32042;50.916;2.926;2024-02-26T10:02:38;4.43;;;3.90;;
46318;SDS011;32042;50.916;2.926;2024-02-26T10:05:05;5.03;;;3.73;;
46318;SDS011;32042;50.916;2.926;2024-02-26T10:07:33;5.17;;;4.67;;
46318;SDS011;32042;50.916;2.926;2024-02-26T10:10:00;5.77;;;3.97;;
46318;SDS011;32042;50.916;2.926;2024-02-26T10:12:26;6.80;;;4.67;;
46318;SDS011;32042;50.916;2.926;2024-02-26T10:14:53;4.07;;;3.73;;
46318;SDS011;32042;50.916;2.926;2024-02-26T10:17:19;5.27;;;4.10;;
46318;SDS011;32042;50.916;2.926;2024-02-26T10:19:45;5.03;;;3.83;;
46318;SDS011;32042;50.916;2.926;2024-02-26T10:22:11;5.57;;;4.97;;
46318;SDS011;32042;50.916;2.926;2024-02-26T10:24:38;6.03;;;5.20;;
46318;SDS011;32042;50.916;2.926;2024-02-26T10:27:04;5.78;;;4.97;;
46318;SDS011;32042;50.916;2.926;2024-02-26T10:29:31;6.93;;;5.40;;
46318;SDS011;32042;50.916;2.926;2024-02-26T10:31:57;5.97;;;4.33;;
46318;SDS011;32042;50.916;2.926;2024-02-26T10:34:23;6.27;;;5.63;;
46318;SDS011;32042;50.916;2.926;2024-02-26T10:36:49;7.93;;;5.87;;
46318;SDS011;32042;50.916;2.926;2024-02-26T10:39:15;6.13;;;5.17;;
46318;SDS011;32042;50.916;2.926;2024-02-26T10:41:43;7.97;;;6.03;;
46318;SDS011;32042;50.916;2.926;2024-02-26T10:44:12;9.05;;;8.23;;
46318;SDS011;32042;50.916;2.926;2024-02-26T10:46:41;8.53;;;7.73;;
46318;SDS011;32042;50.916;2.926;2024-02-26T10:49:14;5.17;;;4.63;;
46318;SDS011;32042;50.916;2.926;2024-02-26T10:51:43;6.50;;;5.83;;
46318;SDS011;32042;50.916;2.926;2024-02-26T10:54:10;6.60;;;5.83;;
46318;SDS011;32042;50.916;2.926;2024-02-26T10:56:37;6.40;;;5.50;;
46318;SDS011;32042;50.916;2.926;2024-02-26T10:59:05;7.40;;;6.73;;
46318;SDS011;32042;50.916;2.926;2024-02-26T11:01:33;5.53;;;5.03;;
46318;SDS011;32042;50.916;2.926;2024-02-26T11:04:03;5.73;;;5.13;;
46318;SDS011;32042;50.916;2.926;2024-02-26T11:06:29;8.03;;;6.83;;
46318;SDS011;32042;50.916;2.926;2024-02-26T11:08:56;6.73;;;6.03;;
46318;SDS011;32042;50.916;2.926;2024-02-26T11:11:22;7.23;;;6.03;;
46318;SDS011;32042;50.916;2.926;2024-02-26T11:13:48;6.30;;;5.70;;
46318;SDS011;32042;50.916;2.926;2024-02-26T11:16:20;5.00;;;4.60;;
46318;SDS011;32042;50.916;2.926;2024-02-26T11:18:47;4.70;;;4.30;;
46318;SDS011;32042;50.916;2.926;2024-02-26T11:21:16;4.90;;;4.23;;
46318;SDS011;32042;50.916;2.926;2024-02-26T11:23:52;5.17;;;4.63;;
46318;SDS011;32042;50.916;2.926;2024-02-26T11:26:19;5.37;;;4.77;;
46318;SDS011;32042;50.916;2.926;2024-02-26T11:28:47;5.27;;;4.20;;
46318;SDS011;32042;50.916;2.926;2024-02-26T11:31:13;4.87;;;3.83;;
46318;SDS011;32042;50.916;2.926;2024-02-26T11:33:40;4.47;;;4.07;;
46318;SDS011;32042;50.916;2.926;2024-02-26T11:36:09;4.53;;;4.13;;
46318;SDS011;32042;50.916;2.926;2024-02-26T11:38:36;6.03;;;4.37;;
46318;SDS011;32042;50.916;2.926;2024-02-26T11:41:02;4.57;;;4.10;;
46318;SDS011;32042;50.916;2.926;2024-02-26T11:46:38;5.53;;;4.10;;
46318;SDS011;32042;50.916;2.926;2024-02-26T11:49:30;3.53;;;3.23;;
46318;SDS011;32042;50.916;2.926;2024-02-26T11:51:50;4.30;;;3.80;;
46318;SDS011;32042;50.916;2.926;2024-02-26T11:54:37;4.63;;;3.40;;
46318;SDS011;32042;50.916;2.926;2024-02-26T11:57:03;3.63;;;3.23;;
46318;SDS011;32042;50.916;2.926;2024-02-26T11:59:38;3.50;;;3.20;;
46318;SDS011;32042;50.916;2.926;2024-02-26T12:02:05;2.60;;;2.40;;
46318;SDS011;32042;50.916;2.926;2024-02-26T12:04:33;2.67;;;2.47;;
46318;SDS011;32042;50.916;2.926;2024-02-26T12:07:02;3.50;;;3.20;;
46318;SDS011;32042;50.916;2.926;2024-02-26T12:09:35;4.30;;;3.07;;
46318;SDS011;32042;50.916;2.926;2024-02-26T12:12:02;4.10;;;2.90;;
46318;SDS011;32042;50.916;2.926;2024-02-26T12:14:28;3.63;;;2.30;;
46318;SDS011;32042;50.916;2.926;2024-02-26T12:16:55;3.17;;;2.87;;
46318;SDS011;32042;50.916;2.926;2024-02-26T12:19:21;3.43;;;3.00;;
46318;SDS011;32042;50.916;2.926;2024-02-26T12:21:51;3.87;;;2.70;;
46318;SDS011;32042;50.916;2.926;2024-02-26T12:24:18;3.00;;;2.70;;
46318;SDS011;32042;50.916;2.926;2024-02-26T12:26:45;2.57;;;2.20;;
46318;SDS011;32042;50.916;2.926;2024-02-26T12:29:12;3.20;;;2.90;;
46318;SDS011;32042;50.916;2.926;2024-02-26T12:31:38;3.07;;;2.47;;
46318;SDS011;32042;50.916;2.926;2024-02-26T12:34:06;2.43;;;2.23;;
46318;SDS011;32042;50.916;2.926;2024-02-26T12:36:35;2.30;;;2.07;;
46318;SDS011;32042;50.916;2.926;2024-02-26T12:39:02;2.17;;;2.00;;
46318;SDS011;32042;50.916;2.926;2024-02-26T12:41:31;3.03;;;2.03;;
46318;SDS011;32042;50.916;2.926;2024-02-26T12:43:57;3.53;;;2.47;;
46318;SDS011;32042;50.916;2.926;2024-02-26T12:46:23;2.47;;;2.17;;
46318;SDS011;32042;50.916;2.926;2024-02-26T12:48:49;2.60;;;1.63;;
46318;SDS011;32042;50.916;2.926;2024-02-26T12:51:16;1.77;;;1.67;;
46318;SDS011;32042;50.916;2.926;2024-02-26T12:53:42;2.20;;;1.87;;
46318;SDS011;32042;50.916;2.926;2024-02-26T12:56:09;2.10;;;1.90;;
46318;SDS011;32042;50.916;2.926;2024-02-26T12:58:37;2.33;;;2.13;;
46318;SDS011;32042;50.916;2.926;2024-02-26T13:01:05;1.80;;;1.70;;
46318;SDS011;32042;50.916;2.926;2024-02-26T13:03:32;2.40;;;1.73;;
46318;SDS011;32042;50.916;2.926;2024-02-26T13:05:59;3.03;;;1.63;;
46318;SDS011;32042;50.916;2.926;2024-02-26T13:08:26;1.70;;;1.57;;
46318;SDS011;32042;50.916;2.926;2024-02-26T13:10:52;2.23;;;1.80;;
46318;SDS011;32042;50.916;2.926;2024-02-26T13:13:18;1.70;;;1.50;;
46318;SDS011;32042;50.916;2.926;2024-02-26T13:15:44;4.23;;;2.10;;
46318;SDS011;32042;50.916;2.926;2024-02-26T13:18:11;1.60;;;1.50;;
46318;SDS011;32042;50.916;2.926;2024-02-26T13:20:38;1.50;;;1.20;;
46318;SDS011;32042;50.916;2.926;2024-02-26T13:23:07;4.23;;;1.70;;
46318;SDS011;32042;50.916;2.926;2024-02-26T13:25:34;2.03;;;1.37;;
46318;SDS011;32042;50.916;2.926;2024-02-26T13:28:16;1.83;;;1.50;;
46318;SDS011;32042;50.916;2.926;2024-02-26T13:30:51;1.60;;;1.50;;
46318;SDS011;32042;50.916;2.926;2024-02-26T13:33:18;2.77;;;1.63;;
46318;SDS011;32042;50.916;2.926;2024-02-26T13:35:44;3.10;;;1.53;;
46318;SDS011;32042;50.916;2.926;2024-02-26T13:38:11;1.70;;;1.60;;
46318;SDS011;32042;50.916;2.926;2024-02-26T13:40:37;1.40;;;1.30;;
46318;SDS011;32042;50.916;2.926;2024-02-26T13:43:06;2.10;;;1.20;;
46318;SDS011;32042;50.916;2.926;2024-02-26T13:45:36;2.07;;;1.60;;
46318;SDS011;32042;50.916;2.926;2024-02-26T13:48:04;2.60;;;1.40;;
46318;SDS011;32042;50.916;2.926;2024-02-26T13:50:31;2.65;;;1.75;;
46318;SDS011;32042;50.916;2.926;2024-02-26T13:52:57;1.50;;;1.33;;
46318;SDS011;32042;50.916;2.926;2024-02-26T13:55:25;1.60;;;1.50;;
46318;SDS011;32042;50.916;2.926;2024-02-26T13:57:53;2.27;;;1.50;;
46318;SDS011;32042;50.916;2.926;2024-02-26T14:00:19;2.13;;;1.50;;
46318;SDS011;32042;50.916;2.926;2024-02-26T14:02:46;1.57;;;1.13;;
46318;SDS011;32042;50.916;2.926;2024-02-26T14:05:12;3.97;;;1.43;;
46318;SDS011;32042;50.916;2.926;2024-02-26T14:07:39;1.40;;;1.30;;
46318;SDS011;32042;50.916;2.926;2024-02-26T14:10:05;1.30;;;1.20;;
46318;SDS011;32042;50.916;2.926;2024-02-26T14:12:31;3.17;;;1.73;;
46318;SDS011;32042;50.916;2.926;2024-02-26T14:14:57;1.83;;;1.60;;
46318;SDS011;32042;50.916;2.926;2024-02-26T14:17:25;2.73;;;1.50;;
46318;SDS011;32042;50.916;2.926;2024-02-26T14:19:52;1.67;;;1.37;;
46318;SDS011;32042;50.916;2.926;2024-02-26T14:22:18;2.60;;;1.20;;
46318;SDS011;32042;50.916;2.926;2024-02-26T14:24:44;2.50;;;1.47;;
46318;SDS011;32042;50.916;2.926;2024-02-26T14:27:10;2.40;;;1.40;;
46318;SDS011;32042;50.916;2.926;2024-02-26T14:29:40;1.73;;;1.63;;
46318;SDS011;32042;50.916;2.926;2024-02-26T14:32:08;4.00;;;1.70;;
46318;SDS011;32042;50.916;2.926;2024-02-26T14:34:34;2.47;;;1.63;;
46318;SDS011;32042;50.916;2.926;2024-02-26T14:37:00;1.63;;;1.50;;
46318;SDS011;32042;50.916;2.926;2024-02-26T14:39:26;3.23;;;1.77;;
46318;SDS011;32042;50.916;2.926;2024-02-26T14:41:52;1.43;;;1.33;;
46318;SDS011;32042;50.916;2.926;2024-02-26T14:44:18;23.47;;;3.43;;
46318;SDS011;32042;50.916;2.926;2024-02-26T14:46:44;6.40;;;1.60;;
46318;SDS011;32042;50.916;2.926;2024-02-26T14:49:10;3.50;;;2.10;;